Dwight, KS (66849)

10:16 AM CDT on September 01, 2015 (GMT -0500)
Thomas Creek | | Change Station
CLOSE
Current Station
Personal Weather Station
Location: Junction City, KS
Elevation: 1240 ft
Nearby Weather Stations

Elev 1240 ft 38.92 °N, 96.73 °W | Updated 15 minutes ago

Clear
Clear
80.9 °F
Feels Like 84 °F
N
11.0
Wind Variable Wind from South
Gusts 14.0 mph

Today
High -- | Low -- °F
--% Chance of Precip.
Yesterday
High -- | Low -- °F
Precip. -- in
6:55 AM 7:56 PM
Waning Gibbous, 88% visible
Pressure 29.94 in
Visibility 10.0 miles
Clouds Clear
Heat Index 84 °F
Dew Point 69 °F
Humidity 68%
Rainfall 0.00 in
Snow Depth Not available.
UV 4 out of 12
Pollen 11.20 out of 12
Air Quality Not available.
Flu Activity Not available.
METAR KFRI 011458Z AUTO 20011G19KT 10SM CLR 28/18 A2997 RMK AO2 SLP137 T02760184 58001
Pressure 29.94 in
Visibility 10.0 miles
Clouds Clear
Heat Index 84 °F
Dew Point 69 °F
Humidity 68%
Rainfall 0.00 in
Snow Depth Not available.
UV 4 out of 12
Pollen 11.20 out of 12
Air Quality Not available.
Flu Activity Not available.
METAR KFRI 011458Z AUTO 20011G19KT 10SM CLR 28/18 A2997 RMK AO2 SLP137 T02760184 58001

10-Day Weather Forecast

×

Almanac

Astronomy

Sep. 01, 2015 Rise Set
Actual Time
Civil Twilight
Nautical Twilight
Astronomical Twilight
Moon
Length of Visible Light
Length of Day
Tomorrow will be .
, % of the Moon is Illuminated

Today's Extremes

State Highs State Lows

Community

WunderPhotos

Upload Photos

1,851,521 photos uploaded!

WunderBlogs® & News

Nearby

Air Quality

  Air Quality AQ Index Pollutant
Not available.

Snow Depth

Station Depth Elevation

Earthquake Activity

City Distance Mag. Time & Date
Minimum magnitude displayed is 2.5.

Coastal Water Temperatures

Place Temperature

Stations

Nearby Weather Stations

Station Location Temp. Windchill Dew Point Humidity Wind Precip. Elev Updated Type